sensor_id;sensor_type;location;lat;lon;timestamp;P1;durP1;ratioP1;P2;durP2;ratioP2
56271;SDS011;42177;48.914;18.160;2022-11-25T00:00:06;38;;;26.2;;
56271;SDS011;42177;48.914;18.160;2022-11-25T00:05:05;38;;;26.2;;
56271;SDS011;42177;48.914;18.160;2022-11-25T00:10:05;43.2;;;25.9;;
56271;SDS011;42177;48.914;18.160;2022-11-25T00:15:05;43.2;;;25.9;;
56271;SDS011;42177;48.914;18.160;2022-11-25T00:20:06;40.3;;;25.5;;
56271;SDS011;42177;48.914;18.160;2022-11-25T00:25:05;40.3;;;25.5;;
56271;SDS011;42177;48.914;18.160;2022-11-25T00:30:05;39.4;;;25;;
56271;SDS011;42177;48.914;18.160;2022-11-25T00:35:05;39.4;;;25;;
56271;SDS011;42177;48.914;18.160;2022-11-25T00:40:06;40.1;;;25;;
56271;SDS011;42177;48.914;18.160;2022-11-25T00:45:05;40.1;;;25;;
56271;SDS011;42177;48.914;18.160;2022-11-25T00:50:05;34.7;;;22.9;;
56271;SDS011;42177;48.914;18.160;2022-11-25T00:55:05;34.7;;;22.9;;
56271;SDS011;42177;48.914;18.160;2022-11-25T01:00:06;36;;;24.5;;
56271;SDS011;42177;48.914;18.160;2022-11-25T01:05:05;36;;;24.5;;
56271;SDS011;42177;48.914;18.160;2022-11-25T01:10:06;38.7;;;25.4;;
56271;SDS011;42177;48.914;18.160;2022-11-25T01:15:05;38.7;;;25.4;;
56271;SDS011;42177;48.914;18.160;2022-11-25T01:20:06;41.1;;;25.9;;
56271;SDS011;42177;48.914;18.160;2022-11-25T01:25:05;41.1;;;25.9;;
56271;SDS011;42177;48.914;18.160;2022-11-25T01:30:06;37.7;;;23.9;;
56271;SDS011;42177;48.914;18.160;2022-11-25T01:35:06;37.7;;;23.9;;
56271;SDS011;42177;48.914;18.160;2022-11-25T01:40:06;36.7;;;23.3;;
56271;SDS011;42177;48.914;18.160;2022-11-25T01:45:23;36.7;;;23.3;;
56271;SDS011;42177;48.914;18.160;2022-11-25T01:50:05;37.7;;;24.7;;
56271;SDS011;42177;48.914;18.160;2022-11-25T01:55:06;37.7;;;24.7;;
56271;SDS011;42177;48.914;18.160;2022-11-25T02:00:06;39.3;;;24.1;;
56271;SDS011;42177;48.914;18.160;2022-11-25T02:05:07;39.3;;;24.1;;
56271;SDS011;42177;48.914;18.160;2022-11-25T02:10:07;41.6;;;26.2;;
56271;SDS011;42177;48.914;18.160;2022-11-25T02:15:05;41.6;;;26.2;;
56271;SDS011;42177;48.914;18.160;2022-11-25T02:20:06;40.1;;;24.9;;
56271;SDS011;42177;48.914;18.160;2022-11-25T02:25:08;40.1;;;24.9;;
56271;SDS011;42177;48.914;18.160;2022-11-25T02:30:05;38.5;;;24.3;;
56271;SDS011;42177;48.914;18.160;2022-11-25T02:35:19;38.5;;;24.3;;
56271;SDS011;42177;48.914;18.160;2022-11-25T02:40:05;41.8;;;24.1;;
56271;SDS011;42177;48.914;18.160;2022-11-25T02:45:06;41.8;;;24.1;;
56271;SDS011;42177;48.914;18.160;2022-11-25T02:50:06;38.4;;;23.3;;
56271;SDS011;42177;48.914;18.160;2022-11-25T02:55:05;38.4;;;23.3;;
56271;SDS011;42177;48.914;18.160;2022-11-25T03:00:05;36.6;;;23.2;;
56271;SDS011;42177;48.914;18.160;2022-11-25T03:05:05;36.6;;;23.2;;
56271;SDS011;42177;48.914;18.160;2022-11-25T03:10:05;37.6;;;22.8;;
56271;SDS011;42177;48.914;18.160;2022-11-25T03:15:05;37.6;;;22.8;;
56271;SDS011;42177;48.914;18.160;2022-11-25T03:20:06;35.3;;;23.3;;
56271;SDS011;42177;48.914;18.160;2022-11-25T03:25:05;35.3;;;23.3;;
56271;SDS011;42177;48.914;18.160;2022-11-25T03:30:06;35.6;;;23.2;;
56271;SDS011;42177;48.914;18.160;2022-11-25T03:35:06;35.6;;;23.2;;
56271;SDS011;42177;48.914;18.160;2022-11-25T03:40:06;31.2;;;20.8;;
56271;SDS011;42177;48.914;18.160;2022-11-25T03:45:06;31.2;;;20.8;;
56271;SDS011;42177;48.914;18.160;2022-11-25T03:50:06;32.3;;;20.4;;
56271;SDS011;42177;48.914;18.160;2022-11-25T03:55:05;32.3;;;20.4;;
56271;SDS011;42177;48.914;18.160;2022-11-25T04:00:05;32.5;;;19.7;;
56271;SDS011;42177;48.914;18.160;2022-11-25T04:05:05;32.5;;;19.7;;
56271;SDS011;42177;48.914;18.160;2022-11-25T04:10:06;31.4;;;19.1;;
56271;SDS011;42177;48.914;18.160;2022-11-25T04:15:05;31.4;;;19.1;;
56271;SDS011;42177;48.914;18.160;2022-11-25T04:20:06;28.2;;;18.6;;
56271;SDS011;42177;48.914;18.160;2022-11-25T04:25:06;28.2;;;18.6;;
56271;SDS011;42177;48.914;18.160;2022-11-25T04:30:05;32.9;;;20.7;;
56271;SDS011;42177;48.914;18.160;2022-11-25T04:35:05;32.9;;;20.7;;
56271;SDS011;42177;48.914;18.160;2022-11-25T04:40:05;30.7;;;19.4;;
56271;SDS011;42177;48.914;18.160;2022-11-25T04:45:07;30.7;;;19.4;;
56271;SDS011;42177;48.914;18.160;2022-11-25T04:50:08;29.7;;;19.1;;
56271;SDS011;42177;48.914;18.160;2022-11-25T04:55:06;29.7;;;19.1;;
56271;SDS011;42177;48.914;18.160;2022-11-25T05:00:06;29.2;;;19.1;;
56271;SDS011;42177;48.914;18.160;2022-11-25T05:05:06;29.2;;;19.1;;
56271;SDS011;42177;48.914;18.160;2022-11-25T05:10:06;28.1;;;18.3;;
56271;SDS011;42177;48.914;18.160;2022-11-25T05:15:06;28.1;;;18.3;;
56271;SDS011;42177;48.914;18.160;2022-11-25T05:20:06;30.6;;;18.8;;
56271;SDS011;42177;48.914;18.160;2022-11-25T05:25:05;30.6;;;18.8;;
56271;SDS011;42177;48.914;18.160;2022-11-25T05:30:05;28.5;;;18.6;;
56271;SDS011;42177;48.914;18.160;2022-11-25T05:35:05;28.5;;;18.6;;
56271;SDS011;42177;48.914;18.160;2022-11-25T05:40:05;30.4;;;20;;
56271;SDS011;42177;48.914;18.160;2022-11-25T05:45:06;30.4;;;20;;
56271;SDS011;42177;48.914;18.160;2022-11-25T05:50:06;29.7;;;18.7;;
56271;SDS011;42177;48.914;18.160;2022-11-25T05:55:05;29.7;;;18.7;;
56271;SDS011;42177;48.914;18.160;2022-11-25T06:00:07;29.3;;;18.8;;
56271;SDS011;42177;48.914;18.160;2022-11-25T06:05:06;29.3;;;18.8;;
56271;SDS011;42177;48.914;18.160;2022-11-25T06:10:06;28.4;;;18.2;;
56271;SDS011;42177;48.914;18.160;2022-11-25T06:15:06;28.4;;;18.2;;
56271;SDS011;42177;48.914;18.160;2022-11-25T06:20:06;29.5;;;17.9;;
56271;SDS011;42177;48.914;18.160;2022-11-25T06:25:06;29.5;;;17.9;;
56271;SDS011;42177;48.914;18.160;2022-11-25T06:30:06;31.4;;;18.6;;
56271;SDS011;42177;48.914;18.160;2022-11-25T06:35:05;31.4;;;18.6;;
56271;SDS011;42177;48.914;18.160;2022-11-25T06:40:06;31;;;19.3;;
56271;SDS011;42177;48.914;18.160;2022-11-25T06:45:05;31;;;19.3;;
56271;SDS011;42177;48.914;18.160;2022-11-25T06:50:05;34;;;18.1;;
56271;SDS011;42177;48.914;18.160;2022-11-25T06:55:05;34;;;18.1;;
56271;SDS011;42177;48.914;18.160;2022-11-25T07:00:06;32.7;;;18.7;;
56271;SDS011;42177;48.914;18.160;2022-11-25T07:05:05;32.7;;;18.7;;
56271;SDS011;42177;48.914;18.160;2022-11-25T07:10:06;34.2;;;18.9;;
56271;SDS011;42177;48.914;18.160;2022-11-25T07:15:05;34.2;;;18.9;;
56271;SDS011;42177;48.914;18.160;2022-11-25T07:20:06;29;;;17.6;;
56271;SDS011;42177;48.914;18.160;2022-11-25T07:25:05;29;;;17.6;;
56271;SDS011;42177;48.914;18.160;2022-11-25T07:30:06;28.4;;;16.5;;
56271;SDS011;42177;48.914;18.160;2022-11-25T07:35:05;28.4;;;16.5;;
56271;SDS011;42177;48.914;18.160;2022-11-25T07:40:06;25.2;;;16.7;;
56271;SDS011;42177;48.914;18.160;2022-11-25T07:45:05;25.2;;;16.7;;
56271;SDS011;42177;48.914;18.160;2022-11-25T07:50:06;23.9;;;16.1;;
56271;SDS011;42177;48.914;18.160;2022-11-25T07:55:06;23.9;;;16.1;;
56271;SDS011;42177;48.914;18.160;2022-11-25T08:00:06;26;;;16.4;;
56271;SDS011;42177;48.914;18.160;2022-11-25T08:05:05;26;;;16.4;;
56271;SDS011;42177;48.914;18.160;2022-11-25T08:10:05;31.8;;;17.2;;
56271;SDS011;42177;48.914;18.160;2022-11-25T08:15:05;31.8;;;17.2;;
56271;SDS011;42177;48.914;18.160;2022-11-25T08:20:06;37.5;;;23.3;;
56271;SDS011;42177;48.914;18.160;2022-11-25T08:25:05;37.5;;;23.3;;
56271;SDS011;42177;48.914;18.160;2022-11-25T08:30:05;37.6;;;25.1;;
56271;SDS011;42177;48.914;18.160;2022-11-25T08:35:05;37.6;;;25.1;;
56271;SDS011;42177;48.914;18.160;2022-11-25T08:40:06;33.6;;;23.3;;
56271;SDS011;42177;48.914;18.160;2022-11-25T08:45:06;33.6;;;23.3;;
56271;SDS011;42177;48.914;18.160;2022-11-25T08:50:07;31.9;;;21.6;;
56271;SDS011;42177;48.914;18.160;2022-11-25T08:55:06;31.9;;;21.6;;
56271;SDS011;42177;48.914;18.160;2022-11-25T09:00:06;35.6;;;21.6;;
56271;SDS011;42177;48.914;18.160;2022-11-25T09:05:05;35.6;;;21.6;;
56271;SDS011;42177;48.914;18.160;2022-11-25T09:10:06;27.1;;;18.8;;
56271;SDS011;42177;48.914;18.160;2022-11-25T09:15:06;27.1;;;18.8;;
56271;SDS011;42177;48.914;18.160;2022-11-25T09:20:06;25.9;;;16.6;;
56271;SDS011;42177;48.914;18.160;2022-11-25T09:25:05;25.9;;;16.6;;
56271;SDS011;42177;48.914;18.160;2022-11-25T09:30:06;25.7;;;15.3;;
56271;SDS011;42177;48.914;18.160;2022-11-25T09:35:05;25.7;;;15.3;;
56271;SDS011;42177;48.914;18.160;2022-11-25T09:40:06;28.2;;;18.7;;
56271;SDS011;42177;48.914;18.160;2022-11-25T09:45:10;28.2;;;18.7;;
56271;SDS011;42177;48.914;18.160;2022-11-25T09:50:08;30.3;;;21.5;;
56271;SDS011;42177;48.914;18.160;2022-11-25T09:55:06;30.3;;;21.5;;
56271;SDS011;42177;48.914;18.160;2022-11-25T10:00:08;31.1;;;20.1;;
56271;SDS011;42177;48.914;18.160;2022-11-25T10:05:06;31.1;;;20.1;;
56271;SDS011;42177;48.914;18.160;2022-11-25T10:10:08;26.8;;;18.9;;
56271;SDS011;42177;48.914;18.160;2022-11-25T10:15:07;26.8;;;18.9;;
56271;SDS011;42177;48.914;18.160;2022-11-25T10:20:06;30.1;;;18.1;;
56271;SDS011;42177;48.914;18.160;2022-11-25T10:25:11;30.1;;;18.1;;
56271;SDS011;42177;48.914;18.160;2022-11-25T10:30:06;32.7;;;21.4;;
56271;SDS011;42177;48.914;18.160;2022-11-25T10:35:06;32.7;;;21.4;;
56271;SDS011;42177;48.914;18.160;2022-11-25T10:40:08;35.1;;;22;;
56271;SDS011;42177;48.914;18.160;2022-11-25T10:45:05;35.1;;;22;;
56271;SDS011;42177;48.914;18.160;2022-11-25T10:50:07;32.7;;;21.1;;
56271;SDS011;42177;48.914;18.160;2022-11-25T10:55:08;32.7;;;21.1;;
56271;SDS011;42177;48.914;18.160;2022-11-25T11:00:07;29.6;;;21.4;;
56271;SDS011;42177;48.914;18.160;2022-11-25T11:05:15;29.6;;;21.4;;
56271;SDS011;42177;48.914;18.160;2022-11-25T11:10:12;29.1;;;20.8;;
56271;SDS011;42177;48.914;18.160;2022-11-25T11:15:13;29.1;;;20.8;;
56271;SDS011;42177;48.914;18.160;2022-11-25T11:20:14;33.4;;;23.5;;
56271;SDS011;42177;48.914;18.160;2022-11-25T11:25:06;33.4;;;23.5;;
56271;SDS011;42177;48.914;18.160;2022-11-25T11:30:07;36.3;;;23.3;;
56271;SDS011;42177;48.914;18.160;2022-11-25T11:35:06;36.3;;;23.3;;
56271;SDS011;42177;48.914;18.160;2022-11-25T11:40:18;35.8;;;24.2;;
56271;SDS011;42177;48.914;18.160;2022-11-25T11:45:11;35.8;;;24.2;;
56271;SDS011;42177;48.914;18.160;2022-11-25T11:50:16;37;;;25.1;;
56271;SDS011;42177;48.914;18.160;2022-11-25T11:55:23;37;;;25.1;;
56271;SDS011;42177;48.914;18.160;2022-11-25T12:00:07;39.9;;;25.5;;
56271;SDS011;42177;48.914;18.160;2022-11-25T12:05:11;39.9;;;25.5;;
56271;SDS011;42177;48.914;18.160;2022-11-25T12:10:07;39.5;;;27.2;;
56271;SDS011;42177;48.914;18.160;2022-11-25T12:15:08;39.5;;;27.2;;
56271;SDS011;42177;48.914;18.160;2022-11-25T12:20:06;38.3;;;26.1;;
56271;SDS011;42177;48.914;18.160;2022-11-25T12:25:06;38.3;;;26.1;;
56271;SDS011;42177;48.914;18.160;2022-11-25T12:30:06;40.7;;;26.9;;
56271;SDS011;42177;48.914;18.160;2022-11-25T12:35:10;40.7;;;26.9;;
56271;SDS011;42177;48.914;18.160;2022-11-25T12:40:06;30.8;;;22.3;;
56271;SDS011;42177;48.914;18.160;2022-11-25T12:45:06;30.8;;;22.3;;
56271;SDS011;42177;48.914;18.160;2022-11-25T12:50:05;27.3;;;18.4;;
56271;SDS011;42177;48.914;18.160;2022-11-25T12:55:10;27.3;;;18.4;;
56271;SDS011;42177;48.914;18.160;2022-11-25T13:00:09;28.2;;;18;;
56271;SDS011;42177;48.914;18.160;2022-11-25T13:10:12;26.7;;;17.3;;
56271;SDS011;42177;48.914;18.160;2022-11-25T13:15:11;26.7;;;17.3;;
56271;SDS011;42177;48.914;18.160;2022-11-25T13:20:21;26.1;;;15;;
56271;SDS011;42177;48.914;18.160;2022-11-25T13:25:16;26.1;;;15;;
56271;SDS011;42177;48.914;18.160;2022-11-25T13:30:22;19.7;;;14.1;;
56271;SDS011;42177;48.914;18.160;2022-11-25T13:36:14;19.7;;;14.1;;
56271;SDS011;42177;48.914;18.160;2022-11-25T13:40:29;20.1;;;13.5;;
56271;SDS011;42177;48.914;18.160;2022-11-25T13:45:20;20.1;;;13.5;;
56271;SDS011;42177;48.914;18.160;2022-11-25T13:50:05;15.8;;;11.2;;
56271;SDS011;42177;48.914;18.160;2022-11-25T13:55:07;15.8;;;11.2;;
56271;SDS011;42177;48.914;18.160;2022-11-25T14:00:06;39.9;;;26.7;;
56271;SDS011;42177;48.914;18.160;2022-11-25T14:05:10;39.9;;;26.7;;
56271;SDS011;42177;48.914;18.160;2022-11-25T14:10:10;44.9;;;26.9;;
56271;SDS011;42177;48.914;18.160;2022-11-25T14:15:17;44.9;;;26.9;;
56271;SDS011;42177;48.914;18.160;2022-11-25T14:20:12;41.4;;;27.5;;
56271;SDS011;42177;48.914;18.160;2022-11-25T14:25:12;41.4;;;27.5;;
56271;SDS011;42177;48.914;18.160;2022-11-25T14:30:06;42.1;;;26.6;;
56271;SDS011;42177;48.914;18.160;2022-11-25T14:35:07;42.1;;;26.6;;
56271;SDS011;42177;48.914;18.160;2022-11-25T14:40:06;41.9;;;26.9;;
56271;SDS011;42177;48.914;18.160;2022-11-25T14:45:18;41.9;;;26.9;;
56271;SDS011;42177;48.914;18.160;2022-11-25T14:50:11;39.2;;;26.2;;
56271;SDS011;42177;48.914;18.160;2022-11-25T14:55:05;39.2;;;26.2;;
56271;SDS011;42177;48.914;18.160;2022-11-25T15:00:06;43.1;;;28.1;;
56271;SDS011;42177;48.914;18.160;2022-11-25T15:05:12;43.1;;;28.1;;
56271;SDS011;42177;48.914;18.160;2022-11-25T15:10:06;39.5;;;25.8;;
56271;SDS011;42177;48.914;18.160;2022-11-25T15:15:12;39.5;;;25.8;;
56271;SDS011;42177;48.914;18.160;2022-11-25T15:20:09;43.4;;;27;;
56271;SDS011;42177;48.914;18.160;2022-11-25T15:25:06;43.4;;;27;;
56271;SDS011;42177;48.914;18.160;2022-11-25T15:30:16;35.9;;;23;;
56271;SDS011;42177;48.914;18.160;2022-11-25T15:35:05;35.9;;;23;;
56271;SDS011;42177;48.914;18.160;2022-11-25T15:40:39;35.8;;;23.4;;
56271;SDS011;42177;48.914;18.160;2022-11-25T15:45:07;35.8;;;23.4;;
56271;SDS011;42177;48.914;18.160;2022-11-25T15:50:20;22.3;;;15.6;;
56271;SDS011;42177;48.914;18.160;2022-11-25T15:55:06;22.3;;;15.6;;
56271;SDS011;42177;48.914;18.160;2022-11-25T16:00:14;23.8;;;17;;
56271;SDS011;42177;48.914;18.160;2022-11-25T16:05:50;23.8;;;17;;
56271;SDS011;42177;48.914;18.160;2022-11-25T16:10:14;21.6;;;15.2;;
56271;SDS011;42177;48.914;18.160;2022-11-25T16:15:14;21.6;;;15.2;;
56271;SDS011;42177;48.914;18.160;2022-11-25T16:20:12;19.8;;;13.9;;
56271;SDS011;42177;48.914;18.160;2022-11-25T16:25:06;19.8;;;13.9;;
56271;SDS011;42177;48.914;18.160;2022-11-25T16:30:08;18.5;;;13.5;;
56271;SDS011;42177;48.914;18.160;2022-11-25T16:35:10;18.5;;;13.5;;
56271;SDS011;42177;48.914;18.160;2022-11-25T16:40:07;18.3;;;13.4;;
56271;SDS011;42177;48.914;18.160;2022-11-25T16:45:08;18.3;;;13.4;;
56271;SDS011;42177;48.914;18.160;2022-11-25T16:50:10;20;;;13.8;;
56271;SDS011;42177;48.914;18.160;2022-11-25T16:55:06;20;;;13.8;;
56271;SDS011;42177;48.914;18.160;2022-11-25T17:00:06;17.2;;;12.7;;
56271;SDS011;42177;48.914;18.160;2022-11-25T17:05:13;17.2;;;12.7;;
56271;SDS011;42177;48.914;18.160;2022-11-25T17:10:06;19.7;;;13.7;;
56271;SDS011;42177;48.914;18.160;2022-11-25T17:15:06;19.7;;;13.7;;
56271;SDS011;42177;48.914;18.160;2022-11-25T17:20:09;22.9;;;15.9;;
56271;SDS011;42177;48.914;18.160;2022-11-25T17:25:05;22.9;;;15.9;;
56271;SDS011;42177;48.914;18.160;2022-11-25T17:30:06;20.3;;;13.9;;
56271;SDS011;42177;48.914;18.160;2022-11-25T17:35:08;20.3;;;13.9;;
56271;SDS011;42177;48.914;18.160;2022-11-25T17:40:06;19.1;;;13.4;;
56271;SDS011;42177;48.914;18.160;2022-11-25T17:45:08;19.1;;;13.4;;
56271;SDS011;42177;48.914;18.160;2022-11-25T17:50:11;21.1;;;14.3;;
56271;SDS011;42177;48.914;18.160;2022-11-25T17:55:06;21.1;;;14.3;;
56271;SDS011;42177;48.914;18.160;2022-11-25T18:00:09;20.7;;;14.4;;
56271;SDS011;42177;48.914;18.160;2022-11-25T18:05:10;20.7;;;14.4;;
56271;SDS011;42177;48.914;18.160;2022-11-25T18:10:06;21.9;;;13.3;;
56271;SDS011;42177;48.914;18.160;2022-11-25T18:15:06;21.9;;;13.3;;
56271;SDS011;42177;48.914;18.160;2022-11-25T18:20:13;22.8;;;16.2;;
56271;SDS011;42177;48.914;18.160;2022-11-25T18:25:05;22.8;;;16.2;;
56271;SDS011;42177;48.914;18.160;2022-11-25T18:30:08;23.4;;;17.4;;
56271;SDS011;42177;48.914;18.160;2022-11-25T18:35:08;23.4;;;17.4;;
56271;SDS011;42177;48.914;18.160;2022-11-25T18:40:06;25.3;;;16.9;;
56271;SDS011;42177;48.914;18.160;2022-11-25T18:45:08;25.3;;;16.9;;
56271;SDS011;42177;48.914;18.160;2022-11-25T18:50:11;22.8;;;16.8;;
56271;SDS011;42177;48.914;18.160;2022-11-25T18:55:05;22.8;;;16.8;;
56271;SDS011;42177;48.914;18.160;2022-11-25T19:00:06;30.3;;;20.9;;
56271;SDS011;42177;48.914;18.160;2022-11-25T19:05:13;30.3;;;20.9;;
56271;SDS011;42177;48.914;18.160;2022-11-25T19:10:06;32.7;;;22;;
56271;SDS011;42177;48.914;18.160;2022-11-25T19:15:05;32.7;;;22;;
56271;SDS011;42177;48.914;18.160;2022-11-25T19:20:11;31.2;;;21.3;;
56271;SDS011;42177;48.914;18.160;2022-11-25T19:25:05;31.2;;;21.3;;
56271;SDS011;42177;48.914;18.160;2022-11-25T19:30:08;28;;;20.2;;
56271;SDS011;42177;48.914;18.160;2022-11-25T19:35:06;28;;;20.2;;
56271;SDS011;42177;48.914;18.160;2022-11-25T19:40:11;34.7;;;22.8;;
56271;SDS011;42177;48.914;18.160;2022-11-25T19:45:06;34.7;;;22.8;;
56271;SDS011;42177;48.914;18.160;2022-11-25T19:50:06;34.2;;;24.6;;
56271;SDS011;42177;48.914;18.160;2022-11-25T19:55:09;34.2;;;24.6;;
56271;SDS011;42177;48.914;18.160;2022-11-25T20:00:07;33.5;;;23.8;;
56271;SDS011;42177;48.914;18.160;2022-11-25T20:05:05;33.5;;;23.8;;
56271;SDS011;42177;48.914;18.160;2022-11-25T20:10:13;31;;;20.5;;
56271;SDS011;42177;48.914;18.160;2022-11-25T20:15:06;31;;;20.5;;
56271;SDS011;42177;48.914;18.160;2022-11-25T20:20:06;26.4;;;18.5;;
56271;SDS011;42177;48.914;18.160;2022-11-25T20:25:06;26.4;;;18.5;;
56271;SDS011;42177;48.914;18.160;2022-11-25T20:30:06;31.3;;;20.8;;
56271;SDS011;42177;48.914;18.160;2022-11-25T20:35:06;31.3;;;20.8;;
56271;SDS011;42177;48.914;18.160;2022-11-25T20:40:09;29.4;;;20.3;;
56271;SDS011;42177;48.914;18.160;2022-11-25T20:45:08;29.4;;;20.3;;
56271;SDS011;42177;48.914;18.160;2022-11-25T20:50:05;28.9;;;20.8;;
56271;SDS011;42177;48.914;18.160;2022-11-25T20:55:12;28.9;;;20.8;;
56271;SDS011;42177;48.914;18.160;2022-11-25T21:00:08;29.2;;;19.5;;
56271;SDS011;42177;48.914;18.160;2022-11-25T21:05:05;29.2;;;19.5;;
56271;SDS011;42177;48.914;18.160;2022-11-25T21:10:23;27.3;;;18.8;;
56271;SDS011;42177;48.914;18.160;2022-11-25T21:15:10;27.3;;;18.8;;
56271;SDS011;42177;48.914;18.160;2022-11-25T21:20:06;33.9;;;22.4;;
56271;SDS011;42177;48.914;18.160;2022-11-25T21:25:05;33.9;;;22.4;;
56271;SDS011;42177;48.914;18.160;2022-11-25T21:30:06;30.9;;;20.9;;
56271;SDS011;42177;48.914;18.160;2022-11-25T21:35:07;30.9;;;20.9;;
56271;SDS011;42177;48.914;18.160;2022-11-25T21:40:06;31.5;;;22.5;;
56271;SDS011;42177;48.914;18.160;2022-11-25T21:45:05;31.5;;;22.5;;
56271;SDS011;42177;48.914;18.160;2022-11-25T21:50:10;30.4;;;21.9;;
56271;SDS011;42177;48.914;18.160;2022-11-25T21:55:06;30.4;;;21.9;;
56271;SDS011;42177;48.914;18.160;2022-11-25T22:00:06;36.1;;;25.6;;
56271;SDS011;42177;48.914;18.160;2022-11-25T22:05:07;36.1;;;25.6;;
56271;SDS011;42177;48.914;18.160;2022-11-25T22:10:07;38.9;;;26.9;;
56271;SDS011;42177;48.914;18.160;2022-11-25T22:15:08;38.9;;;26.9;;
56271;SDS011;42177;48.914;18.160;2022-11-25T22:20:12;34.6;;;23.7;;
56271;SDS011;42177;48.914;18.160;2022-11-25T22:25:07;34.6;;;23.7;;
56271;SDS011;42177;48.914;18.160;2022-11-25T22:30:06;40;;;27.5;;
56271;SDS011;42177;48.914;18.160;2022-11-25T22:35:11;40;;;27.5;;
56271;SDS011;42177;48.914;18.160;2022-11-25T22:40:06;34.2;;;24.9;;
56271;SDS011;42177;48.914;18.160;2022-11-25T22:45:06;34.2;;;24.9;;
56271;SDS011;42177;48.914;18.160;2022-11-25T22:50:06;35;;;23.9;;
56271;SDS011;42177;48.914;18.160;2022-11-25T22:55:14;35;;;23.9;;
56271;SDS011;42177;48.914;18.160;2022-11-25T23:00:06;35.9;;;26.1;;
56271;SDS011;42177;48.914;18.160;2022-11-25T23:05:08;35.9;;;26.1;;
56271;SDS011;42177;48.914;18.160;2022-11-25T23:10:11;33;;;23.5;;
56271;SDS011;42177;48.914;18.160;2022-11-25T23:15:05;33;;;23.5;;
56271;SDS011;42177;48.914;18.160;2022-11-25T23:20:11;31.6;;;21.9;;
56271;SDS011;42177;48.914;18.160;2022-11-25T23:25:10;31.6;;;21.9;;
56271;SDS011;42177;48.914;18.160;2022-11-25T23:30:06;27.8;;;19.4;;
56271;SDS011;42177;48.914;18.160;2022-11-25T23:35:07;27.8;;;19.4;;
56271;SDS011;42177;48.914;18.160;2022-11-25T23:40:08;27.7;;;19.4;;
56271;SDS011;42177;48.914;18.160;2022-11-25T23:45:07;27.7;;;19.4;;
56271;SDS011;42177;48.914;18.160;2022-11-25T23:50:05;25.7;;;18.3;;
56271;SDS011;42177;48.914;18.160;2022-11-25T23:55:06;25.7;;;18.3;;
